Terminal Aerodrome Forecast
Issued by NWS Duluth, MN

Home | Current Version | Previous Version | Text Only | Print | Product List | Glossary On
Versions: 1 2 3 4 5 6 7 8 9 10 11 12 13 14 15 16 17 18 19 20 21 22 23 24 25 26 27 28 29 30
000
FTUS43 KDLH 122300
TAFDLH
TAF
KDLH 122339Z 1300/1324 25008KT P6SM SCT045 BKN100
     FM130400 27012G20KT P6SM VCTS BKN050CB OVC100
      TEMPO 1304/1306 3SM -TSRA BR BKN025CB OVC050
     FM130600 32012G20KT P6SM SCT060
     FM130800 32011KT P6SM SKC
     FM131500 29015G22KT P6SM SCT050=

USA.gov is the U.S. government's official web portal to all federal, state and local government web resources and services.